Latest Weather Observations for White Cliffs AWS

IDN60801

Issued at 6:33 am EST Sunday 25 September 2016 (issued every 30 minutes, with the page automatically refreshed every 10 minutes)

About weather observations | Map of weather stations | Latest weather observations for NSW | Other Formats
Station Details ID: 046129 Name: WHITE CLIFFS AWS Lat: -30.85 Lon: 143.07 Height: 158.0 m
Data from the previous 72 hours. | See also: Recent months at White Cliffs AWS
Date/Time
EST
Temp
°C
App
Temp
°C
Dew
Point
°C
Rel
Hum
%
Delta-T
°C
Wind Press
QNH
hPa
Press
MSL
hPa
Rain since
9am
mm
Dir  Spd
km/h
Gust
km/h
Spd
kts
Gust
kts
25/06:30am 10.9 4.9 8.5 85 1.2 SSW 30 39 16 21 1012.3 1012.0 0.4
25/06:00am 11.1 4.8 9.0 87 1.1 SSW 32 43 17 23 1011.7 1011.3 0.4
25/05:30am 11.5 5.1 9.4 87 1.1 SSW 33 43 18 23 1011.0 1010.6 0.4
25/05:00am 11.2 6.6 9.8 91 0.7 SSW 24 32 13 17 1010.6 1010.2 0.4
25/04:30am 11.7 6.8 9.9 89 0.9 SSW 26 35 14 19 1010.3 1009.9 0.4
25/04:00am 11.1 7.3 9.7 91 0.7 SW 20 24 11 13 1009.7 1009.4 0.4
25/03:30am 11.5 7.3 9.8 89 0.9 SW 22 28 12 15 1009.5 1009.2 0.4
25/03:00am 12.1 7.5 9.8 86 1.2 SW 24 33 13 18 1009.2 1008.9 0.4
25/02:30am 11.7 8.4 9.4 86 1.2 SW 17 20 9 11 1009.0 1008.7 0.4
25/02:00am 12.3 8.4 9.3 82 1.5 SSW 20 28 11 15 1008.6 1008.3 0.4
25/01:34am 12.6 5.0 9.2 80 1.7 SW 39 57 21 31 1009.2 1008.9 0.4
25/01:30am 12.7 4.4 9.3 80 1.7 SW 43 57 23 31 1009.2 1008.9 0.4
25/01:14am 13.9 11.0 12.8 93 0.6 WSW 20 46 11 25 1009.4 1009.1 0.4
25/01:00am 13.0 11.7 12.5 97 0.3 WSW 11 13 6 7 1008.6 1008.3 0.4
25/12:30am 13.2 11.6 12.7 97 0.3 W 13 15 7 8 1008.4 1008.1 0.4
25/12:00am 13.6 12.0 12.7 94 0.5 WSW 13 15 7 8 1008.5 1008.2 0.4
 
Date/Time
EST
Temp
°C
App
Temp
°C
Dew
Point
°C
Rel
Hum
%
Delta-T
°C
Wind Press
QNH
hPa
Press
MSL
hPa
Rain since
9am
mm
Dir  Spd
km/h
Gust
km/h
Spd
kts
Gust
kts
24/11:30pm 14.4 14.3 13.3 93 0.6 NNE 6 11 3 6 1008.1 1007.8 0.4
24/11:00pm 14.5 14.1 13.0 91 0.8 ENE 7 11 4 6 1008.5 1008.2 0.4
24/10:30pm 14.5 13.3 12.7 89 1.0 E 11 13 6 7 1008.0 1007.7 0.4
24/10:00pm 14.7 14.2 12.6 87 1.2 ENE 7 11 4 6 1008.1 1007.8 0.4
24/09:30pm 14.9 13.6 12.6 86 1.3 E 11 15 6 8 1008.2 1007.9 0.4
24/09:00pm 14.9 13.7 12.9 88 1.1 E 11 15 6 8 1008.4 1008.1 0.4
24/08:30pm 14.9 14.5 12.9 88 1.1 E 7 11 4 6 1008.5 1008.2 0.4
24/08:00pm 14.8 15.0 13.2 90 0.9 E 4 9 2 5 1008.3 1008.0 0.4
24/07:30pm 14.9 15.4 12.9 88 1.1 SE 2 7 1 4 1008.2 1007.9 0.4
24/07:00pm 15.2 16.0 12.5 84 1.5 CALM 0 6 0 3 1007.8 1007.5 0.2
24/06:30pm 15.2 14.7 12.2 82 1.6 ESE 6 9 3 5 1007.4 1007.1 0.2
24/06:00pm 15.4 14.0 12.3 82 1.7 SSE 11 15 6 8 1007.2 1006.9 0.2
24/05:30pm 15.7 14.0 12.3 80 1.9 S 13 17 7 9 1007.6 1007.3 0.2
24/05:00pm 16.1 13.8 11.7 75 2.4 WSW 15 20 8 11 1007.5 1007.2 0.2
24/04:30pm 19.3 15.5 8.9 51 5.5 NNW 19 26 10 14 1007.1 1006.8 0.0
24/04:00pm 20.2 15.8 6.5 41 7.0 N 19 24 10 13 1006.2 1005.8 0.0
24/03:30pm 20.5 14.7 6.1 39 7.3 N 26 33 14 18 1006.1 1005.7 0.0
24/03:00pm 20.7 16.4 7.0 41 7.1 N 19 24 10 13 1006.6 1006.3 0.0
24/02:30pm 19.9 17.9 8.6 48 5.9 E 9 13 5 7 1006.0 1005.6 0.0
24/02:29pm 19.9 18.0 8.9 49 5.8 E 9 13 5 7 1006.0 1005.6 0.0
24/02:00pm 19.1 16.7 9.9 55 5.0 N 13 17 7 9 1008.0 1007.7 0.0
24/01:30pm 20.2 16.1 6.2 40 7.1 NNW 17 22 9 12 1009.3 1009.0 0.0
24/01:00pm 20.6 15.8 5.8 38 7.4 NNW 20 28 11 15 1010.0 1009.6 0.0
24/12:30pm 20.8 15.8 4.8 35 7.9 NW 20 26 11 14 1010.1 1009.7 0.0
24/12:00pm 20.7 14.9 4.3 34 8.0 NNW 24 32 13 17 1010.0 1009.6 0.0
24/11:30am 21.1 15.3 4.6 34 8.1 N 24 32 13 17 1009.9 1009.5 0.0
24/11:00am 21.5 15.7 4.6 33 8.3 N 24 30 13 16 1009.9 1009.5 0.0
24/10:30am 20.3 14.9 4.4 35 7.7 N 22 30 12 16 1010.2 1009.8 0.0
24/10:00am 20.0 15.1 4.9 37 7.4 N 20 26 11 14 1009.9 1009.5 0.0
24/09:30am 19.1 13.9 5.6 41 6.7 N 22 30 12 16 1010.7 1010.3 0.0
24/09:00am 18.4 13.4 6.3 45 6.0 N 22 30 12 16 1010.9 1010.5 0.0
24/08:30am 17.1 12.6 6.3 49 5.3 N 19 24 10 13 1010.8 1010.4 0.0
24/08:00am 15.8 11.9 7.1 56 4.3 N 17 20 9 11 1010.9 1010.5 0.0
24/07:30am 13.4 10.9 8.0 70 2.7 N 11 15 6 8 1011.1 1010.7 0.0
24/07:00am 11.3 8.5 6.8 74 2.2 N 11 13 6 7 1010.8 1010.4 0.0
24/06:30am 10.0 6.7 6.3 78 1.7 NNE 13 15 7 8 1010.2 1009.8 0.0
24/06:00am 9.7 6.7 6.1 78 1.7 NNE 11 13 6 7 1009.7 1009.4 0.0
24/05:30am 10.2 6.8 6.0 75 2.0 N 13 13 7 7 1009.9 1009.5 0.0
24/05:00am 10.8 7.6 5.3 69 2.5 NE 11 11 6 6 1009.3 1009.0 0.0
24/04:30am 10.8 7.6 5.1 68 2.6 NE 11 13 6 7 1009.0 1008.7 0.0
24/04:00am 10.6 7.4 5.2 69 2.5 ENE 11 13 6 7 1009.3 1009.0 0.0
24/03:30am 11.4 9.1 5.5 67 2.7 NE 7 9 4 5 1009.6 1009.3 0.0
24/03:00am 10.8 8.5 5.6 70 2.4 NNE 7 9 4 5 1010.0 1009.6 0.0
24/02:30am 11.2 8.1 5.7 69 2.6 NNE 11 11 6 6 1010.3 1009.9 0.0
24/02:00am 11.7 9.1 6.0 68 2.7 NNE 9 11 5 6 1010.8 1010.4 0.0
24/01:30am 11.5 9.5 6.4 71 2.4 NNE 6 7 3 4 1011.1 1010.7 0.0
24/01:00am 11.8 9.7 6.5 70 2.5 N 7 7 4 4 1011.4 1011.0 0.0
24/12:30am 12.8 10.3 6.6 66 3.0 N 9 9 5 5 1011.7 1011.3 0.0
24/12:00am 12.5 10.1 6.8 68 2.8 N 9 11 5 6 1011.5 1011.1 0.0
 
Date/Time
EST
Temp
°C
App
Temp
°C
Dew
Point
°C
Rel
Hum
%
Delta-T
°C
Wind Press
QNH
hPa
Press
MSL
hPa
Rain since
9am
mm
Dir  Spd
km/h
Gust
km/h
Spd
kts
Gust
kts
23/11:30pm 12.5 8.9 6.8 68 2.8 NNE 15 17 8 9 1011.2 1010.8 0.0
23/11:00pm 12.8 8.8 6.8 67 2.9 NNE 17 17 9 9 1011.2 1010.8 0.0
23/10:30pm 12.6 9.1 7.3 70 2.6 NNE 15 15 8 8 1011.7 1011.3 0.0
23/10:00pm 12.9 9.8 7.4 69 2.7 NNE 13 15 7 8 1011.9 1011.6 0.0
23/09:30pm 13.2 10.6 7.6 69 2.8 NNE 11 13 6 7 1011.9 1011.6 0.0
23/09:00pm 13.3 10.2 7.3 67 2.9 NNE 13 13 7 7 1011.6 1011.2 0.0
23/08:30pm 14.3 12.0 7.6 64 3.3 N 9 11 5 6 1011.8 1011.4 0.0
23/08:00pm 14.8 12.1 7.4 61 3.7 N 11 13 6 7 1011.7 1011.3 0.0
23/07:30pm 16.0 13.2 7.0 55 4.5 NNW 11 11 6 6 1011.9 1011.6 0.0
23/07:00pm 16.7 14.2 6.5 51 5.1 NNW 9 11 5 6 1011.8 1011.4 0.0
23/06:30pm 17.6 15.0 5.9 46 5.8 NNW 9 11 5 6 1011.8 1011.4 0.0
23/06:00pm 18.6 15.0 5.1 41 6.6 NNW 13 17 7 9 1011.8 1011.4 0.0
23/05:30pm 18.9 15.2 4.7 39 6.9 N 13 17 7 9 1011.7 1011.3 0.0
23/05:00pm 18.9 15.2 4.3 38 7.0 N 13 19 7 10 1011.4 1011.0 0.0
23/04:30pm 18.7 14.9 4.1 38 7.0 N 13 19 7 10 1011.6 1011.2 0.0
23/04:00pm 19.5 15.8 4.4 37 7.3 NW 13 22 7 12 1011.9 1011.6 0.0
23/03:30pm 19.2 15.1 4.2 37 7.2 NNW 15 20 8 11 1012.2 1011.9 0.0
23/03:00pm 19.3 15.6 4.6 38 7.1 NNW 13 20 7 11 1012.5 1012.2 0.0
23/02:30pm 18.7 15.0 2.1 33 7.6 NW 11 20 6 11 1013.0 1012.7 0.0
23/02:00pm 18.1 14.3 3.9 39 6.7 NNW 13 22 7 12 1013.4 1013.1 0.0
23/01:30pm 18.0 15.1 4.6 41 6.4 N 9 15 5 8 1013.9 1013.6 0.0
23/01:00pm 17.5 14.6 4.5 42 6.2 NNE 9 17 5 9 1014.3 1014.0 0.0
23/12:30pm 16.6 12.8 4.0 43 5.9 N 13 20 7 11 1014.8 1014.5 0.0
23/12:00pm 16.3 12.6 4.4 45 5.6 NNE 13 24 7 13 1015.3 1015.0 0.0
23/11:30am 16.0 12.3 4.4 46 5.5 NNE 13 20 7 11 1015.8 1015.5 0.0
23/11:00am 15.3 11.6 4.4 48 5.1 NNW 13 22 7 12 1016.3 1016.0 0.0
23/10:30am 15.0 11.3 4.7 50 4.8 N 13 20 7 11 1016.7 1016.3 0.0
23/10:00am 14.8 11.6 5.3 53 4.5 NNW 11 19 6 10 1017.1 1016.7 0.0
23/09:30am 14.3 11.8 4.6 52 4.5 ENE 7 13 4 7 1017.3 1016.9 0.0
23/09:00am 13.5 11.1 5.2 57 3.9 E 7 11 4 6 1017.5 1017.2 0.0
23/08:30am 11.8 10.1 6.1 68 2.7 ESE 4 7 2 4 1017.8 1017.5 0.0
23/08:00am 10.2 7.5 5.4 72 2.2 SSW 9 11 5 6 1017.8 1017.5 0.0
23/07:30am 9.2 7.1 5.6 78 1.6 S 6 7 3 4 1017.3 1016.9 0.0
23/07:00am 7.2 4.9 5.5 89 0.8 S 7 7 4 4 1017.0 1016.6 0.0
23/06:30am 5.8 4.2 4.4 91 0.6 SSW 2 7 1 4 1017.0 1016.6 0.0
23/06:00am 6.1 4.9 4.4 89 0.7 CALM 0 0 0 0 1016.8 1016.4 0.0
23/05:30am 6.3 5.1 4.6 89 0.7 CALM 0 0 0 0 1016.5 1016.1 0.0
23/05:00am 6.7 5.6 5.0 89 0.8 CALM 0 0 0 0 1016.1 1015.8 0.0
23/04:30am 6.7 5.5 4.5 86 1.0 CALM 0 0 0 0 1016.2 1015.9 0.0
23/04:00am 7.0 5.4 4.5 84 1.1 NE 2 7 1 4 1016.2 1015.9 0.0
23/03:30am 7.1 3.9 4.9 86 1.0 SSW 11 13 6 7 1016.5 1016.1 0.0
23/03:00am 7.2 3.6 5.2 87 0.9 SSW 13 15 7 8 1017.0 1016.6 0.0
23/02:30am 7.4 3.8 5.2 86 1.0 SSW 13 15 7 8 1017.0 1016.6 0.0
23/02:00am 7.6 4.5 5.4 86 1.0 SSW 11 13 6 7 1017.2 1016.8 0.0
23/01:30am 7.7 4.5 5.3 85 1.1 SSW 11 13 6 7 1017.6 1017.3 0.0
23/01:00am 7.9 4.4 5.4 84 1.1 SSW 13 15 7 8 1017.7 1017.4 0.0
23/12:30am 8.4 4.9 5.5 82 1.3 SSW 13 13 7 7 1017.8 1017.5 0.0
23/12:00am 8.8 5.3 5.4 79 1.5 SSW 13 15 7 8 1018.0 1017.7 0.0
 
Date/Time
EST
Temp
°C
App
Temp
°C
Dew
Point
°C
Rel
Hum
%
Delta-T
°C
Wind Press
QNH
hPa
Press
MSL
hPa
Rain since
9am
mm
Dir  Spd
km/h
Gust
km/h
Spd
kts
Gust
kts
22/11:30pm 9.1 6.0 5.7 79 1.6 S 11 13 6 7 1018.0 1017.7 0.0
22/11:00pm 9.4 6.7 5.6 77 1.7 S 9 13 5 7 1018.0 1017.7 0.0
22/10:30pm 9.9 7.2 5.5 74 2.0 SSE 9 13 5 7 1018.0 1017.7 0.0
22/10:00pm 10.3 7.1 5.3 71 2.3 SSE 11 13 6 7 1018.1 1017.8 0.0
22/09:30pm 10.9 7.7 5.2 68 2.6 SSE 11 15 6 8 1018.2 1017.9 0.0
22/09:00pm 11.4 8.2 5.3 66 2.8 SSE 11 13 6 7 1018.4 1018.1 0.0
22/08:30pm 11.6 8.5 5.7 67 2.8 S 11 15 6 8 1018.3 1018.0 0.0
22/08:00pm 11.9 9.5 6.8 71 2.4 SSW 9 11 5 6 1018.4 1018.1 0.0
22/07:30pm 12.6 10.1 6.6 67 2.9 SSW 9 11 5 6 1018.2 1017.9 0.0
22/07:00pm 12.9 9.9 5.8 62 3.4 SW 11 13 6 7 1018.1 1017.8 0.0
22/06:30pm 14.1 10.4 4.7 53 4.4 SW 13 19 7 10 1017.7 1017.4 0.0
22/06:00pm 15.2 10.7 4.0 47 5.2 SW 17 20 9 11 1017.8 1017.5 0.0
22/05:30pm 15.8 10.8 4.5 47 5.3 SW 20 26 11 14 1017.5 1017.2 0.0
22/05:00pm 16.0 11.9 4.4 46 5.5 SSW 15 24 8 13 1017.3 1016.9 0.0
22/04:30pm 16.4 12.8 5.1 47 5.4 SW 13 22 7 12 1017.2 1016.8 0.0
22/04:00pm 16.2 11.8 4.9 47 5.4 WSW 17 28 9 15 1017.2 1016.8 0.0
22/03:30pm 16.3 12.8 5.6 49 5.2 SW 13 20 7 11 1017.2 1016.8 0.0
22/03:00pm 15.8 11.0 4.5 47 5.3 SW 19 26 10 14 1017.3 1016.9 0.0
22/02:30pm 15.4 11.7 4.2 47 5.2 SSW 13 22 7 12 1017.7 1017.4 0.0
22/02:00pm 14.8 11.1 4.5 50 4.8 SSW 13 22 7 12 1018.0 1017.7 0.0
22/01:30pm 14.8 11.2 5.1 52 4.6 SSW 13 26 7 14 1018.4 1018.1 0.0
22/01:00pm 14.9 10.6 5.4 53 4.5 SW 17 28 9 15 1018.9 1018.6 0.0
22/12:30pm 14.0 10.4 5.1 55 4.2 S 13 20 7 11 1018.9 1018.6 0.0
22/12:00pm 13.2 9.1 4.6 56 4.0 S 15 22 8 12 1019.1 1018.8 0.0
22/11:30am 13.5 9.9 4.9 56 4.0 S 13 22 7 12 1019.3 1019.0 0.0
22/11:00am 13.0 8.3 5.2 59 3.6 S 19 26 10 14 1019.6 1019.3 0.0
22/10:30am 12.1 7.6 4.1 58 3.6 S 17 24 9 13 1019.8 1019.5 0.0
22/10:00am 11.7 6.7 4.4 61 3.3 SSW 20 26 11 14 1020.1 1019.8 0.0
22/09:30am 11.7 6.0 5.1 64 3.1 SSW 24 32 13 17 1020.1 1019.8 0.0
22/09:00am 11.4 5.8 5.3 66 2.8 SSW 24 30 13 16 1019.9 1019.6 0.0
22/08:30am 10.4 4.6 4.3 66 2.7 SSW 24 32 13 17 1019.7 1019.4 0.0
22/08:00am 9.5 4.1 4.7 72 2.2 SSW 22 28 12 15 1019.4 1019.1 0.0
22/07:30am 8.8 4.4 5.0 77 1.7 SW 17 20 9 11 1019.1 1018.8 0.0
22/07:00am 7.6 4.0 4.9 83 1.2 SSW 13 15 7 8 1018.6 1018.3 0.0

Other Formats:

Comma delimited format used in spreadsheet applications
http://www.bom.gov.au/fwo/IDN60801/IDN60801.95699.axf

JavaScript Object Notation format (JSON) in row-major order
http://www.bom.gov.au/fwo/IDN60801/IDN60801.95699.json